N879HZ KPSP-KCRQ
Flight info
| Callsign | N879HZ |
|---|---|
| Flight time | 1h 8m |
| Altitude | 10000 |
| Route | TRM6 TRM V208 WARNE ESCON |
| Aircraft | C172/L-SFG/C |
Departure
| Time | 2026-04-27 01:02 |
|---|---|
| Airport | Palm Springs International Airport (KPSP) |
Arrival
| Time | 2026-04-27 02:11 |
|---|---|
| Airport | McClellan-Palomar Airport (KCRQ) |
| Time | Latitude | Longitude | Altitude | Speed | Heading |
|---|---|---|---|---|---|
| 2026-04-27 00:36 | 33.82630 | -116.50870 | 430 ft | 0 kts | 89° |
| 2026-04-27 00:42 | 33.82630 | -116.50856 | 429 ft | 2 kts | 94° |
| 2026-04-27 00:42 | 33.82631 | -116.50841 | 429 ft | 10 kts | 90° |
| 2026-04-27 00:42 | 33.82590 | -116.50735 | 426 ft | 14 kts | 94° |
| 2026-04-27 00:42 | 33.82572 | -116.50619 | 421 ft | 20 kts | 140° |
| 2026-04-27 00:43 | 33.82449 | -116.50509 | 412 ft | 25 kts | 142° |
| 2026-04-27 00:43 | 33.82276 | -116.50356 | 409 ft | 36 kts | 144° |
| 2026-04-27 00:43 | 33.82050 | -116.50154 | 405 ft | 47 kts | 144° |
| 2026-04-27 00:43 | 33.81827 | -116.49956 | 398 ft | 23 kts | 138° |
| 2026-04-27 00:44 | 33.82633 | -116.50862 | 430 ft | 4 kts | 56° |
| 2026-04-27 00:44 | 33.82613 | -116.50780 | 423 ft | 20 kts | 124° |
| 2026-04-27 00:44 | 33.82599 | -116.50652 | 423 ft | 16 kts | 122° |
| 2026-04-27 00:44 | 33.82464 | -116.50522 | 417 ft | 34 kts | 143° |
| 2026-04-27 00:45 | 33.82268 | -116.50348 | 409 ft | 35 kts | 143° |
| 2026-04-27 00:45 | 33.82079 | -116.50179 | 405 ft | 33 kts | 146° |
| 2026-04-27 00:45 | 33.81900 | -116.50026 | 401 ft | 31 kts | 146° |
| 2026-04-27 00:45 | 33.81811 | -116.49935 | 397 ft | 0 kts | 54° |
| 2026-04-27 00:59 | 33.81820 | -116.49922 | 397 ft | 9 kts | 51° |
| 2026-04-27 01:00 | 33.81840 | -116.49888 | 398 ft | 0 kts | 56° |
| 2026-04-27 01:01 | 33.81853 | -116.49864 | 398 ft | 9 kts | 57° |
| 2026-04-27 01:01 | 33.81923 | -116.49837 | 397 ft | 11 kts | 323° |
| 2026-04-27 01:01 | 33.81982 | -116.49888 | 399 ft | 30 kts | 324° |
| 2026-04-27 01:01 | 33.82264 | -116.50141 | 407 ft | 68 kts | 322° |
| 2026-04-27 01:02 | 33.82657 | -116.50534 | 556 ft | 77 kts | 323° |
| 2026-04-27 01:02 | 33.83053 | -116.50966 | 749 ft | 79 kts | 316° |
| 2026-04-27 01:02 | 33.83525 | -116.50961 | 949 ft | 87 kts | 56° |
| 2026-04-27 01:02 | 33.83463 | -116.50233 | 1216 ft | 92 kts | 99° |
| 2026-04-27 01:03 | 33.83308 | -116.49470 | 1445 ft | 96 kts | 102° |
| 2026-04-27 01:03 | 33.83146 | -116.48676 | 1676 ft | 97 kts | 103° |
| 2026-04-27 01:03 | 33.83004 | -116.47881 | 1888 ft | 99 kts | 102° |
| 2026-04-27 01:03 | 33.82887 | -116.47048 | 2065 ft | 106 kts | 103° |
| 2026-04-27 01:04 | 33.82773 | -116.46201 | 2307 ft | 102 kts | 101° |
| 2026-04-27 01:04 | 33.82670 | -116.45386 | 2556 ft | 98 kts | 99° |
| 2026-04-27 01:04 | 33.82562 | -116.44560 | 2766 ft | 102 kts | 100° |
| 2026-04-27 01:04 | 33.82453 | -116.43720 | 3007 ft | 101 kts | 100° |
| 2026-04-27 01:05 | 33.82347 | -116.42874 | 3211 ft | 104 kts | 101° |
| 2026-04-27 01:05 | 33.82239 | -116.42006 | 3415 ft | 104 kts | 101° |
| 2026-04-27 01:05 | 33.82133 | -116.41144 | 3610 ft | 106 kts | 101° |
| 2026-04-27 01:05 | 33.82027 | -116.40258 | 3811 ft | 107 kts | 101° |
| 2026-04-27 01:06 | 33.81918 | -116.39357 | 4000 ft | 109 kts | 101° |
| 2026-04-27 01:06 | 33.81810 | -116.38447 | 4178 ft | 112 kts | 98° |
| 2026-04-27 01:06 | 33.81756 | -116.37518 | 4357 ft | 111 kts | 112° |
| 2026-04-27 01:06 | 33.81300 | -116.36863 | 4529 ft | 104 kts | 140° |
| 2026-04-27 01:07 | 33.80843 | -116.36286 | 4681 ft | 103 kts | 148° |
| 2026-04-27 01:07 | 33.80426 | -116.35786 | 4831 ft | 103 kts | 146° |
| 2026-04-27 01:07 | 33.79904 | -116.35191 | 4988 ft | 105 kts | 147° |
| 2026-04-27 01:07 | 33.79379 | -116.34595 | 5172 ft | 103 kts | 148° |
| 2026-04-27 01:08 | 33.78858 | -116.34007 | 5338 ft | 103 kts | 148° |
| 2026-04-27 01:08 | 33.78286 | -116.33408 | 5390 ft | 115 kts | 162° |
| 2026-04-27 01:08 | 33.77670 | -116.32806 | 5560 ft | 113 kts | 164° |
| 2026-04-27 01:08 | 33.77056 | -116.32212 | 5691 ft | 114 kts | 165° |
| 2026-04-27 01:09 | 33.76430 | -116.31618 | 5835 ft | 115 kts | 166° |
| 2026-04-27 01:09 | 33.75798 | -116.31030 | 5984 ft | 115 kts | 167° |
| 2026-04-27 01:09 | 33.75157 | -116.30454 | 6102 ft | 117 kts | 167° |
| 2026-04-27 01:09 | 33.74501 | -116.29878 | 6245 ft | 116 kts | 164° |
| 2026-04-27 01:10 | 33.73859 | -116.29321 | 6398 ft | 113 kts | 163° |
| 2026-04-27 01:10 | 33.73221 | -116.28779 | 6540 ft | 110 kts | 162° |
| 2026-04-27 01:10 | 33.72605 | -116.28260 | 6686 ft | 108 kts | 160° |
| 2026-04-27 01:10 | 33.71981 | -116.27746 | 6819 ft | 109 kts | 160° |
| 2026-04-27 01:11 | 33.71358 | -116.27246 | 6949 ft | 109 kts | 161° |
| 2026-04-27 01:11 | 33.70720 | -116.26747 | 7087 ft | 109 kts | 162° |
| 2026-04-27 01:11 | 33.70088 | -116.26261 | 7205 ft | 109 kts | 163° |
| 2026-04-27 01:11 | 33.69440 | -116.25780 | 7301 ft | 109 kts | 156° |
| 2026-04-27 01:12 | 33.68901 | -116.25140 | 7425 ft | 113 kts | 126° |
| 2026-04-27 01:12 | 33.68443 | -116.24365 | 7543 ft | 114 kts | 126° |
| 2026-04-27 01:12 | 33.68042 | -116.23534 | 7655 ft | 115 kts | 121° |
| 2026-04-27 01:12 | 33.67842 | -116.22619 | 7754 ft | 114 kts | 84° |
| 2026-04-27 01:13 | 33.67737 | -116.21685 | 7852 ft | 117 kts | 119° |
| 2026-04-27 01:13 | 33.67197 | -116.20992 | 7961 ft | 114 kts | 140° |
| 2026-04-27 01:13 | 33.66627 | -116.20319 | 8058 ft | 115 kts | 143° |
| 2026-04-27 01:13 | 33.66051 | -116.19665 | 8162 ft | 115 kts | 143° |
| 2026-04-27 01:14 | 33.65465 | -116.19005 | 8278 ft | 115 kts | 143° |
| 2026-04-27 01:14 | 33.64880 | -116.18349 | 8376 ft | 115 kts | 143° |
| 2026-04-27 01:14 | 33.64298 | -116.17697 | 8469 ft | 116 kts | 143° |
| 2026-04-27 01:14 | 33.63705 | -116.17033 | 8587 ft | 116 kts | 143° |
| 2026-04-27 01:15 | 33.63109 | -116.16365 | 8690 ft | 117 kts | 144° |
| 2026-04-27 01:15 | 33.62547 | -116.15653 | 8777 ft | 120 kts | 125° |
| 2026-04-27 01:15 | 33.62119 | -116.14802 | 8872 ft | 120 kts | 126° |
| 2026-04-27 01:15 | 33.61681 | -116.13959 | 8957 ft | 120 kts | 125° |
| 2026-04-27 01:16 | 33.61236 | -116.13105 | 9038 ft | 120 kts | 125° |
| 2026-04-27 01:16 | 33.60954 | -116.12187 | 9099 ft | 119 kts | 79° |
| 2026-04-27 01:16 | 33.61238 | -116.11318 | 9182 ft | 106 kts | 36° |
| 2026-04-27 01:16 | 33.61825 | -116.10902 | 9241 ft | 92 kts | 359° |
| 2026-04-27 01:17 | 33.62405 | -116.10930 | 9312 ft | 80 kts | 332° |
| 2026-04-27 01:17 | 33.62860 | -116.11263 | 9374 ft | 75 kts | 309° |
| 2026-04-27 01:17 | 33.63126 | -116.11781 | 9433 ft | 73 kts | 289° |
| 2026-04-27 01:17 | 33.63172 | -116.12383 | 9497 ft | 74 kts | 269° |
| 2026-04-27 01:18 | 33.63060 | -116.12973 | 9586 ft | 71 kts | 267° |
| 2026-04-27 01:18 | 33.62950 | -116.13555 | 9638 ft | 71 kts | 266° |
| 2026-04-27 01:18 | 33.62840 | -116.14138 | 9699 ft | 71 kts | 266° |
| 2026-04-27 01:18 | 33.62730 | -116.14715 | 9749 ft | 71 kts | 266° |
| 2026-04-27 01:19 | 33.62637 | -116.15297 | 9807 ft | 70 kts | 276° |
| 2026-04-27 01:19 | 33.62740 | -116.15856 | 9861 ft | 69 kts | 293° |
| 2026-04-27 01:19 | 33.63026 | -116.16313 | 9903 ft | 71 kts | 311° |
| 2026-04-27 01:19 | 33.63484 | -116.16598 | 9946 ft | 78 kts | 334° |
| 2026-04-27 01:20 | 33.64052 | -116.16589 | 9967 ft | 90 kts | 2° |
| 2026-04-27 01:20 | 33.64610 | -116.16146 | 10005 ft | 105 kts | 39° |
| 2026-04-27 01:20 | 33.64854 | -116.15263 | 10011 ft | 120 kts | 90° |
| 2026-04-27 01:20 | 33.64537 | -116.14331 | 10018 ft | 123 kts | 128° |
| 2026-04-27 01:21 | 33.64079 | -116.13457 | 10012 ft | 126 kts | 126° |
| 2026-04-27 01:21 | 33.63604 | -116.12558 | 10012 ft | 128 kts | 126° |
| 2026-04-27 01:21 | 33.63132 | -116.11659 | 10017 ft | 130 kts | 126° |
| 2026-04-27 01:21 | 33.62564 | -116.10805 | 10008 ft | 128 kts | 159° |
| 2026-04-27 01:22 | 33.61749 | -116.10658 | 10015 ft | 113 kts | 205° |
| 2026-04-27 01:22 | 33.61136 | -116.11116 | 10018 ft | 99 kts | 242° |
| 2026-04-27 01:22 | 33.60894 | -116.11836 | 10013 ft | 93 kts | 271° |
| 2026-04-27 01:22 | 33.61025 | -116.12578 | 10013 ft | 90 kts | 297° |
| 2026-04-27 01:23 | 33.61348 | -116.13194 | 10003 ft | 85 kts | 299° |
| 2026-04-27 01:23 | 33.61653 | -116.13782 | 10006 ft | 80 kts | 299° |
| 2026-04-27 01:23 | 33.61939 | -116.14330 | 10004 ft | 77 kts | 299° |
| 2026-04-27 01:23 | 33.62217 | -116.14864 | 10004 ft | 74 kts | 299° |
| 2026-04-27 01:24 | 33.62486 | -116.15380 | 10010 ft | 72 kts | 299° |
| 2026-04-27 01:24 | 33.62750 | -116.15887 | 10007 ft | 71 kts | 299° |
| 2026-04-27 01:24 | 33.63061 | -116.16360 | 10025 ft | 78 kts | 316° |
| 2026-04-27 01:24 | 33.63602 | -116.16610 | 10026 ft | 95 kts | 351° |
| 2026-04-27 01:25 | 33.64209 | -116.16733 | 10011 ft | 84 kts | 303° |
| 2026-04-27 01:25 | 33.64129 | -116.17373 | 10019 ft | 96 kts | 232° |
| 2026-04-27 01:25 | 33.63416 | -116.17586 | 10026 ft | 115 kts | 192° |
| 2026-04-27 01:25 | 33.62611 | -116.17595 | 10024 ft | 116 kts | 193° |
| 2026-04-27 01:26 | 33.61817 | -116.17700 | 10022 ft | 116 kts | 196° |
| 2026-04-27 01:26 | 33.61026 | -116.17760 | 10021 ft | 108 kts | 214° |
| 2026-04-27 01:26 | 33.60415 | -116.18215 | 10024 ft | 103 kts | 225° |
| 2026-04-27 01:26 | 33.59820 | -116.18694 | 10026 ft | 102 kts | 228° |
| 2026-04-27 01:27 | 33.59243 | -116.19183 | 10024 ft | 103 kts | 229° |
| 2026-04-27 01:27 | 33.58660 | -116.19686 | 10025 ft | 102 kts | 229° |
| 2026-04-27 01:27 | 33.58089 | -116.20180 | 10019 ft | 101 kts | 232° |
| 2026-04-27 01:27 | 33.57530 | -116.20667 | 10018 ft | 99 kts | 233° |
| 2026-04-27 01:28 | 33.56977 | -116.21151 | 10024 ft | 97 kts | 233° |
| 2026-04-27 01:28 | 33.56433 | -116.21629 | 10021 ft | 96 kts | 231° |
| 2026-04-27 01:28 | 33.55889 | -116.22109 | 10013 ft | 98 kts | 231° |
| 2026-04-27 01:28 | 33.55354 | -116.22575 | 9976 ft | 91 kts | 232° |
| 2026-04-27 01:29 | 33.54886 | -116.22951 | 10005 ft | 76 kts | 236° |
| 2026-04-27 01:29 | 33.54465 | -116.23360 | 10025 ft | 85 kts | 232° |
| 2026-04-27 01:29 | 33.53974 | -116.23794 | 10030 ft | 89 kts | 235° |
| 2026-04-27 01:29 | 33.53470 | -116.24233 | 10026 ft | 89 kts | 234° |
| 2026-04-27 01:30 | 33.52970 | -116.24669 | 10015 ft | 88 kts | 232° |
| 2026-04-27 01:30 | 33.52480 | -116.25095 | 10013 ft | 86 kts | 234° |
| 2026-04-27 01:30 | 33.52017 | -116.25502 | 10022 ft | 81 kts | 234° |
| 2026-04-27 01:30 | 33.51571 | -116.25885 | 10052 ft | 76 kts | 235° |
| 2026-04-27 01:31 | 33.51152 | -116.26258 | 10058 ft | 78 kts | 234° |
| 2026-04-27 01:31 | 33.50708 | -116.26649 | 10046 ft | 83 kts | 233° |
| 2026-04-27 01:31 | 33.50255 | -116.27043 | 10044 ft | 77 kts | 236° |
| 2026-04-27 01:31 | 33.49813 | -116.27432 | 10050 ft | 79 kts | 234° |
| 2026-04-27 01:32 | 33.49359 | -116.27831 | 10059 ft | 83 kts | 232° |
| 2026-04-27 01:32 | 33.48885 | -116.28242 | 10041 ft | 82 kts | 230° |
| 2026-04-27 01:32 | 33.48458 | -116.28593 | 10028 ft | 64 kts | 237° |
| 2026-04-27 01:32 | 33.48127 | -116.28899 | 10032 ft | 59 kts | 236° |
| 2026-04-27 01:33 | 33.47783 | -116.29201 | 10067 ft | 67 kts | 237° |
| 2026-04-27 01:33 | 33.47387 | -116.29529 | 10095 ft | 71 kts | 238° |
| 2026-04-27 01:33 | 33.46953 | -116.29958 | 10072 ft | 88 kts | 231° |
| 2026-04-27 01:33 | 33.46426 | -116.30408 | 10062 ft | 97 kts | 232° |
| 2026-04-27 01:34 | 33.45870 | -116.30892 | 10051 ft | 98 kts | 231° |
| 2026-04-27 01:34 | 33.45325 | -116.31375 | 10050 ft | 99 kts | 231° |
| 2026-04-27 01:34 | 33.44763 | -116.31862 | 10045 ft | 100 kts | 230° |
| 2026-04-27 01:34 | 33.44210 | -116.32342 | 10041 ft | 96 kts | 231° |
| 2026-04-27 01:35 | 33.43677 | -116.32804 | 10036 ft | 91 kts | 231° |
| 2026-04-27 01:35 | 33.43172 | -116.33245 | 10043 ft | 89 kts | 232° |
| 2026-04-27 01:35 | 33.42675 | -116.33676 | 10039 ft | 88 kts | 232° |
| 2026-04-27 01:35 | 33.42187 | -116.34108 | 10042 ft | 86 kts | 232° |
| 2026-04-27 01:36 | 33.41712 | -116.34516 | 10043 ft | 81 kts | 234° |
| 2026-04-27 01:36 | 33.41255 | -116.34920 | 10040 ft | 84 kts | 233° |
| 2026-04-27 01:36 | 33.40788 | -116.35330 | 10046 ft | 84 kts | 233° |
| 2026-04-27 01:36 | 33.40325 | -116.35733 | 10049 ft | 80 kts | 234° |
| 2026-04-27 01:37 | 33.39867 | -116.36132 | 10057 ft | 83 kts | 232° |
| 2026-04-27 01:37 | 33.39400 | -116.36543 | 10060 ft | 84 kts | 231° |
| 2026-04-27 01:37 | 33.38924 | -116.36959 | 10064 ft | 85 kts | 232° |
| 2026-04-27 01:37 | 33.38446 | -116.37380 | 10063 ft | 86 kts | 232° |
| 2026-04-27 01:38 | 33.37968 | -116.37793 | 10058 ft | 86 kts | 232° |
| 2026-04-27 01:38 | 33.37487 | -116.38213 | 10071 ft | 85 kts | 232° |
| 2026-04-27 01:38 | 33.37005 | -116.38636 | 10078 ft | 88 kts | 232° |
| 2026-04-27 01:38 | 33.36504 | -116.39075 | 10081 ft | 90 kts | 232° |
| 2026-04-27 01:39 | 33.35999 | -116.39514 | 10080 ft | 90 kts | 232° |
| 2026-04-27 01:39 | 33.35513 | -116.39969 | 10077 ft | 85 kts | 240° |
| 2026-04-27 01:39 | 33.35189 | -116.40508 | 10068 ft | 73 kts | 252° |
| 2026-04-27 01:39 | 33.35016 | -116.41046 | 10068 ft | 68 kts | 259° |
| 2026-04-27 01:40 | 33.34861 | -116.41595 | 10074 ft | 71 kts | 260° |
| 2026-04-27 01:40 | 33.34700 | -116.42168 | 10069 ft | 73 kts | 260° |
| 2026-04-27 01:40 | 33.34540 | -116.42746 | 10080 ft | 74 kts | 259° |
| 2026-04-27 01:40 | 33.34373 | -116.43338 | 10082 ft | 75 kts | 260° |
| 2026-04-27 01:41 | 33.34207 | -116.43936 | 10083 ft | 77 kts | 259° |
| 2026-04-27 01:41 | 33.34032 | -116.44564 | 10082 ft | 79 kts | 258° |
| 2026-04-27 01:41 | 33.33857 | -116.45192 | 10063 ft | 81 kts | 259° |
| 2026-04-27 01:41 | 33.33684 | -116.45822 | 10083 ft | 81 kts | 259° |
| 2026-04-27 01:42 | 33.33499 | -116.46477 | 10080 ft | 85 kts | 258° |
| 2026-04-27 01:42 | 33.33311 | -116.47149 | 10073 ft | 84 kts | 258° |
| 2026-04-27 01:42 | 33.33128 | -116.47801 | 10073 ft | 83 kts | 259° |
| 2026-04-27 01:42 | 33.32946 | -116.48455 | 10069 ft | 82 kts | 259° |
| 2026-04-27 01:43 | 33.32762 | -116.49114 | 10067 ft | 83 kts | 258° |
| 2026-04-27 01:43 | 33.32584 | -116.49744 | 10069 ft | 79 kts | 259° |
| 2026-04-27 01:43 | 33.32412 | -116.50367 | 10075 ft | 80 kts | 259° |
| 2026-04-27 01:43 | 33.32293 | -116.50784 | 10087 ft | 80 kts | 259° |
| 2026-04-27 01:44 | 33.32062 | -116.51614 | 10090 ft | 80 kts | 258° |
| 2026-04-27 01:44 | 33.31887 | -116.52237 | 10088 ft | 78 kts | 259° |
| 2026-04-27 01:44 | 33.31715 | -116.52848 | 10086 ft | 77 kts | 259° |
| 2026-04-27 01:44 | 33.31547 | -116.53450 | 10084 ft | 76 kts | 259° |
| 2026-04-27 01:45 | 33.31380 | -116.54042 | 10090 ft | 75 kts | 259° |
| 2026-04-27 01:45 | 33.31267 | -116.54451 | 10097 ft | 78 kts | 259° |
| 2026-04-27 01:45 | 33.31098 | -116.55053 | 10090 ft | 75 kts | 259° |
| 2026-04-27 01:45 | 33.30933 | -116.55626 | 10086 ft | 68 kts | 260° |
| 2026-04-27 01:46 | 33.30782 | -116.56175 | 10092 ft | 72 kts | 259° |
| 2026-04-27 01:46 | 33.30624 | -116.56746 | 10091 ft | 74 kts | 257° |
| 2026-04-27 01:46 | 33.30457 | -116.57341 | 10097 ft | 77 kts | 258° |
| 2026-04-27 01:46 | 33.30287 | -116.57949 | 10099 ft | 77 kts | 257° |
| 2026-04-27 01:47 | 33.30117 | -116.58553 | 10101 ft | 77 kts | 258° |
| 2026-04-27 01:47 | 33.29941 | -116.59183 | 10097 ft | 81 kts | 257° |
| 2026-04-27 01:47 | 33.29758 | -116.59835 | 10100 ft | 84 kts | 257° |
| 2026-04-27 01:47 | 33.29571 | -116.60506 | 10101 ft | 86 kts | 257° |
| 2026-04-27 01:48 | 33.29378 | -116.61192 | 10101 ft | 87 kts | 257° |
| 2026-04-27 01:48 | 33.29184 | -116.61881 | 10099 ft | 87 kts | 257° |
| 2026-04-27 01:48 | 33.28992 | -116.62561 | 10096 ft | 86 kts | 257° |
| 2026-04-27 01:48 | 33.28806 | -116.63223 | 10109 ft | 85 kts | 257° |
| 2026-04-27 01:49 | 33.28618 | -116.63890 | 10106 ft | 84 kts | 257° |
| 2026-04-27 01:49 | 33.28432 | -116.64552 | 10104 ft | 84 kts | 257° |
| 2026-04-27 01:49 | 33.28247 | -116.65207 | 10103 ft | 83 kts | 257° |
| 2026-04-27 01:49 | 33.28062 | -116.65875 | 10010 ft | 86 kts | 257° |
| 2026-04-27 01:50 | 33.27865 | -116.66577 | 9814 ft | 91 kts | 257° |
| 2026-04-27 01:50 | 33.27671 | -116.67307 | 9608 ft | 93 kts | 258° |
| 2026-04-27 01:50 | 33.27494 | -116.68054 | 9401 ft | 93 kts | 260° |
| 2026-04-27 01:50 | 33.27337 | -116.68800 | 9194 ft | 94 kts | 261° |
| 2026-04-27 01:51 | 33.27200 | -116.69551 | 8977 ft | 91 kts | 262° |
| 2026-04-27 01:51 | 33.27024 | -116.70271 | 8764 ft | 91 kts | 252° |
| 2026-04-27 01:51 | 33.26774 | -116.70961 | 8560 ft | 90 kts | 253° |
| 2026-04-27 01:51 | 33.26531 | -116.71651 | 8354 ft | 90 kts | 255° |
| 2026-04-27 01:52 | 33.26305 | -116.72349 | 8152 ft | 90 kts | 256° |
| 2026-04-27 01:52 | 33.26092 | -116.73049 | 7950 ft | 89 kts | 256° |
| 2026-04-27 01:52 | 33.25886 | -116.73745 | 7750 ft | 89 kts | 257° |
| 2026-04-27 01:52 | 33.25682 | -116.74445 | 7549 ft | 90 kts | 257° |
| 2026-04-27 01:53 | 33.25479 | -116.75156 | 7368 ft | 90 kts | 257° |
| 2026-04-27 01:53 | 33.25283 | -116.75833 | 7259 ft | 78 kts | 256° |
| 2026-04-27 01:53 | 33.25118 | -116.76411 | 7264 ft | 72 kts | 257° |
| 2026-04-27 01:53 | 33.24968 | -116.76933 | 7246 ft | 63 kts | 256° |
| 2026-04-27 01:54 | 33.24830 | -116.77414 | 7286 ft | 63 kts | 258° |
| 2026-04-27 01:54 | 33.24681 | -116.77951 | 7287 ft | 72 kts | 257° |
| 2026-04-27 01:54 | 33.24516 | -116.78528 | 7274 ft | 72 kts | 258° |
| 2026-04-27 01:54 | 33.24360 | -116.79073 | 7272 ft | 70 kts | 259° |
| 2026-04-27 01:55 | 33.24200 | -116.79644 | 7304 ft | 76 kts | 258° |
| 2026-04-27 01:55 | 33.24019 | -116.80282 | 7284 ft | 82 kts | 257° |
| 2026-04-27 01:55 | 33.23833 | -116.80948 | 7289 ft | 88 kts | 257° |
| 2026-04-27 01:55 | 33.23631 | -116.81661 | 7278 ft | 93 kts | 256° |
| 2026-04-27 01:56 | 33.23233 | -116.83058 | 7183 ft | 86 kts | 256° |
| 2026-04-27 01:56 | 33.23035 | -116.83763 | 7060 ft | 95 kts | 256° |
| 2026-04-27 01:56 | 33.22824 | -116.84515 | 6913 ft | 96 kts | 256° |
| 2026-04-27 01:57 | 33.22610 | -116.85261 | 6767 ft | 93 kts | 257° |
| 2026-04-27 01:57 | 33.22405 | -116.85976 | 6627 ft | 93 kts | 257° |
| 2026-04-27 01:57 | 33.22191 | -116.86731 | 6502 ft | 99 kts | 256° |
| 2026-04-27 01:57 | 33.21959 | -116.87551 | 6336 ft | 108 kts | 255° |
| 2026-04-27 01:58 | 33.21711 | -116.88431 | 6186 ft | 113 kts | 255° |
| 2026-04-27 01:58 | 33.21456 | -116.89325 | 6030 ft | 114 kts | 255° |
| 2026-04-27 01:58 | 33.21200 | -116.90223 | 5881 ft | 114 kts | 255° |
| 2026-04-27 01:58 | 33.20953 | -116.91094 | 5653 ft | 110 kts | 255° |
| 2026-04-27 01:59 | 33.20714 | -116.91936 | 5397 ft | 105 kts | 255° |
| 2026-04-27 01:59 | 33.20492 | -116.92704 | 5366 ft | 92 kts | 253° |
| 2026-04-27 01:59 | 33.20292 | -116.93399 | 5377 ft | 88 kts | 255° |
| 2026-04-27 01:59 | 33.20091 | -116.94104 | 5379 ft | 90 kts | 255° |
| 2026-04-27 02:00 | 33.19891 | -116.94810 | 5384 ft | 90 kts | 256° |
| 2026-04-27 02:00 | 33.19688 | -116.95521 | 5380 ft | 91 kts | 255° |
| 2026-04-27 02:00 | 33.19477 | -116.96260 | 5280 ft | 100 kts | 255° |
| 2026-04-27 02:00 | 33.19255 | -116.97055 | 5093 ft | 104 kts | 255° |
| 2026-04-27 02:01 | 33.19020 | -116.97871 | 4889 ft | 103 kts | 254° |
| 2026-04-27 02:01 | 33.18793 | -116.98676 | 4684 ft | 102 kts | 256° |
| 2026-04-27 02:01 | 33.18563 | -116.99478 | 4480 ft | 102 kts | 254° |
| 2026-04-27 02:01 | 33.18334 | -117.00287 | 4279 ft | 102 kts | 254° |
| 2026-04-27 02:02 | 33.18104 | -117.01087 | 4080 ft | 102 kts | 255° |
| 2026-04-27 02:02 | 33.17868 | -117.01917 | 3870 ft | 107 kts | 255° |
| 2026-04-27 02:02 | 33.17626 | -117.02764 | 3668 ft | 110 kts | 255° |
| 2026-04-27 02:02 | 33.17379 | -117.03627 | 3587 ft | 105 kts | 254° |
| 2026-04-27 02:03 | 33.17146 | -117.04426 | 3588 ft | 101 kts | 255° |
| 2026-04-27 02:03 | 33.16922 | -117.05213 | 3591 ft | 99 kts | 255° |
| 2026-04-27 02:03 | 33.16700 | -117.05990 | 3588 ft | 98 kts | 255° |
| 2026-04-27 02:03 | 33.16476 | -117.06768 | 3583 ft | 98 kts | 255° |
| 2026-04-27 02:04 | 33.16257 | -117.07536 | 3586 ft | 98 kts | 255° |
| 2026-04-27 02:04 | 33.16039 | -117.08299 | 3584 ft | 97 kts | 255° |
| 2026-04-27 02:04 | 33.15868 | -117.09069 | 3582 ft | 96 kts | 264° |
| 2026-04-27 02:04 | 33.15745 | -117.09843 | 3569 ft | 91 kts | 258° |
| 2026-04-27 02:05 | 33.15611 | -117.10547 | 3304 ft | 86 kts | 261° |
| 2026-04-27 02:05 | 33.15481 | -117.11247 | 3066 ft | 89 kts | 259° |
| 2026-04-27 02:05 | 33.15343 | -117.11946 | 2973 ft | 83 kts | 262° |
| 2026-04-27 02:05 | 33.15270 | -117.12640 | 2815 ft | 86 kts | 265° |
| 2026-04-27 02:06 | 33.15191 | -117.13355 | 2648 ft | 86 kts | 262° |
| 2026-04-27 02:06 | 33.15093 | -117.14034 | 2566 ft | 82 kts | 261° |
| 2026-04-27 02:06 | 33.14960 | -117.14693 | 2533 ft | 80 kts | 257° |
| 2026-04-27 02:06 | 33.14838 | -117.15356 | 2492 ft | 83 kts | 262° |
| 2026-04-27 02:07 | 33.14730 | -117.16042 | 2329 ft | 85 kts | 264° |
| 2026-04-27 02:07 | 33.14629 | -117.16738 | 2144 ft | 86 kts | 260° |
| 2026-04-27 02:07 | 33.14499 | -117.17447 | 2033 ft | 89 kts | 262° |
| 2026-04-27 02:07 | 33.14383 | -117.18190 | 1935 ft | 91 kts | 262° |
| 2026-04-27 02:08 | 33.14269 | -117.18897 | 1889 ft | 83 kts | 262° |
| 2026-04-27 02:08 | 33.14159 | -117.19575 | 1765 ft | 86 kts | 259° |
| 2026-04-27 02:08 | 33.14044 | -117.20299 | 1632 ft | 90 kts | 262° |
| 2026-04-27 02:08 | 33.13930 | -117.21027 | 1486 ft | 89 kts | 262° |
| 2026-04-27 02:09 | 33.13815 | -117.21749 | 1347 ft | 87 kts | 261° |
| 2026-04-27 02:09 | 33.13710 | -117.22452 | 1194 ft | 85 kts | 259° |
| 2026-04-27 02:09 | 33.13605 | -117.23151 | 1091 ft | 83 kts | 262° |
| 2026-04-27 02:09 | 33.13478 | -117.23830 | 978 ft | 83 kts | 257° |
| 2026-04-27 02:10 | 33.13352 | -117.24510 | 878 ft | 86 kts | 255° |
| 2026-04-27 02:10 | 33.13249 | -117.25226 | 748 ft | 88 kts | 262° |
| 2026-04-27 02:10 | 33.13146 | -117.25934 | 682 ft | 81 kts | 259° |
| 2026-04-27 02:10 | 33.13058 | -117.26585 | 456 ft | 78 kts | 262° |
| 2026-04-27 02:11 | 33.12969 | -117.27116 | 365 ft | 59 kts | 262° |
| 2026-04-27 02:11 | 33.12912 | -117.27500 | 319 ft | 34 kts | 259° |
| 2026-04-27 02:11 | 33.12875 | -117.27720 | 316 ft | 22 kts | 258° |
| 2026-04-27 02:11 | 33.12845 | -117.27868 | 319 ft | 14 kts | 246° |
| 2026-04-27 02:12 | 33.12797 | -117.27944 | 319 ft | 10 kts | 227° |
| 2026-04-27 02:12 | 33.12757 | -117.27921 | 319 ft | 5 kts | 81° |
| 2026-04-27 02:12 | 33.12757 | -117.27920 | 319 ft | 0 kts | 81° |